Time;durP1;ratioP1;P1;durP2;ratioP2;P2;SDS_P1;SDS_P2;PMS_P1;PMS_P2;Temp;Humidity;BMP_temperature;BMP_pressure;BME280_temperature;BME280_humidity;BME280_pressure;Samples;Min_cycle;Max_cycle;Signal;HPM_P1;HPM_P2
2022/06/19 00:00:34;;;;;;;9.27;2.28;;;;;;;;;;6311234;22;20639;-90
2022/06/19 00:03:07;;;;;;;9.07;2.17;;;;;;;;;;6308330;22;20098;-91
2022/06/19 00:05:40;;;;;;;11.48;3.13;;;;;;;;;;6284401;22;20023;-91
2022/06/19 00:08:09;;;;;;;7.57;2.03;;;;;;;;;;6273983;22;20070;-90
2022/06/19 00:10:41;;;;;;;8.40;2.50;;;;;;;;;;6259230;22;20090;-90
2022/06/19 00:13:09;;;;;;;11.10;2.92;;;;;;;;;;6311179;22;20122;-91
2022/06/19 00:15:37;;;;;;;7.88;2.28;;;;;;;;;;6276224;22;20049;-92
2022/06/19 00:18:05;;;;;;;9.32;2.08;;;;;;;;;;6317667;22;20019;-93
2022/06/19 00:20:43;;;;;;;11.13;2.78;;;;;;;;;;6279340;22;20018;-91
2022/06/19 00:23:11;;;;;;;11.43;2.53;;;;;;;;;;6314700;22;20012;-92
2022/06/19 00:25:43;;;;;;;8.85;2.72;;;;;;;;;;6291566;22;20084;-93
2022/06/19 00:28:15;;;;;;;11.30;2.33;;;;;;;;;;6289247;22;20019;-91
2022/06/19 00:30:43;;;;;;;11.63;2.35;;;;;;;;;;6286070;22;20106;-91
2022/06/19 00:33:11;;;;;;;13.43;1.95;;;;;;;;;;6284166;22;20111;-91
2022/06/19 00:35:39;;;;;;;14.27;2.10;;;;;;;;;;6288141;22;20023;-91
2022/06/19 00:38:07;;;;;;;14.98;2.33;;;;;;;;;;6283556;22;20023;-92
2022/06/19 00:40:35;;;;;;;13.80;2.15;;;;;;;;;;6249248;22;20359;-91
2022/06/19 00:43:07;;;;;;;12.85;1.95;;;;;;;;;;6259298;22;20022;-92
2022/06/19 00:45:49;;;;;;;15.05;2.05;;;;;;;;;;6311734;22;20019;-93
2022/06/19 00:48:23;;;;;;;11.88;2.42;;;;;;;;;;6224660;22;20019;-93
2022/06/19 00:51:18;;;;;;;13.15;2.53;;;;;;;;;;6286298;22;20603;-93
2022/06/19 00:53:52;;;;;;;9.80;1.98;;;;;;;;;;6313622;22;20011;-94
2022/06/19 00:56:20;;;;;;;12.68;2.40;;;;;;;;;;6250122;22;20019;-93
2022/06/19 00:58:51;;;;;;;16.15;2.30;;;;;;;;;;6284172;22;20834;-85
2022/06/19 01:01:25;;;;;;;10.38;2.03;;;;;;;;;;6311546;22;20076;-85
2022/06/19 01:04:17;;;;;;;10.43;2.28;;;;;;;;;;6311576;22;20019;-88
2022/06/19 01:06:45;;;;;;;13.68;2.17;;;;;;;;;;6312804;22;20015;-87
2022/06/19 01:09:39;;;;;;;13.18;2.45;;;;;;;;;;6274716;22;20430;-87
2022/06/19 01:12:13;;;;;;;13.32;2.20;;;;;;;;;;6312477;22;20092;-87
2022/06/19 01:14:44;;;;;;;13.57;2.30;;;;;;;;;;6312086;22;20019;-92
2022/06/19 01:17:18;;;;;;;9.52;2.25;;;;;;;;;;6313193;22;20026;-93
2022/06/19 01:19:47;;;;;;;11.88;2.40;;;;;;;;;;6286599;22;20386;-92
2022/06/19 01:22:37;;;;;;;11.25;1.90;;;;;;;;;;6313186;22;20015;-92
2022/06/19 01:25:18;;;;;;;19.17;2.55;;;;;;;;;;6285714;22;20015;-92
2022/06/19 01:30:37;;;;;;;11.13;2.40;;;;;;;;;;6248573;22;20027;-85
2022/06/19 01:33:09;;;;;;;10.90;2.38;;;;;;;;;;6310286;22;20016;-85
2022/06/19 01:35:45;;;;;;;8.32;1.95;;;;;;;;;;6311829;22;20045;-91
2022/06/19 01:38:25;;;;;;;13.80;1.95;;;;;;;;;;6311645;22;20113;-90
2022/06/19 01:41:28;;;;;;;10.48;2.03;;;;;;;;;;6311680;22;20039;-90
2022/06/19 01:43:55;;;;;;;9.13;1.88;;;;;;;;;;6284879;22;20124;-91
2022/06/19 01:46:48;;;;;;;11.85;2.53;;;;;;;;;;6312404;22;20771;-93
2022/06/19 01:49:15;;;;;;;12.00;2.38;;;;;;;;;;6223885;22;20023;-94
2022/06/19 01:52:07;;;;;;;8.60;2.20;;;;;;;;;;6274338;22;20030;-94
2022/06/19 01:54:43;;;;;;;11.82;2.05;;;;;;;;;;6248469;22;20105;-94
2022/06/19 01:57:17;;;;;;;14.98;2.30;;;;;;;;;;6275309;22;20447;-93
2022/06/19 01:59:46;;;;;;;14.00;2.30;;;;;;;;;;6286229;22;20050;-93
2022/06/19 02:02:15;;;;;;;18.05;2.53;;;;;;;;;;6285123;22;20130;-93
2022/06/19 02:05:07;;;;;;;16.83;2.22;;;;;;;;;;6249788;22;20014;-93
2022/06/19 02:07:35;;;;;;;15.73;2.60;;;;;;;;;;6224196;22;20050;-93
2022/06/19 02:10:05;;;;;;;13.02;2.65;;;;;;;;;;6249896;22;20022;-93
2022/06/19 02:12:36;;;;;;;14.27;2.65;;;;;;;;;;6249908;22;20053;-93
2022/06/19 02:15:11;;;;;;;12.35;2.53;;;;;;;;;;6312068;22;20146;-93
2022/06/19 02:17:45;;;;;;;18.60;1.98;;;;;;;;;;6312008;22;20536;-94
2022/06/19 02:20:37;;;;;;;10.18;2.28;;;;;;;;;;6286163;22;20100;-93
2022/06/19 02:23:07;;;;;;;14.05;1.95;;;;;;;;;;6285304;22;20019;-93
2022/06/19 02:25:39;;;;;;;12.70;2.67;;;;;;;;;;6260903;22;20051;-94
2022/06/19 02:28:13;;;;;;;10.48;2.05;;;;;;;;;;6274410;22;20054;-92
2022/06/19 02:33:51;;;;;;;19.13;2.30;;;;;;;;;;6308938;22;20015;-85
2022/06/19 02:36:35;;;;;;;10.50;1.80;;;;;;;;;;6284206;22;20030;-91
2022/06/19 02:39:30;;;;;;;8.00;1.75;;;;;;;;;;6310552;22;20019;-91
2022/06/19 02:42:05;;;;;;;12.02;2.60;;;;;;;;;;6284623;22;20046;-91
2022/06/19 02:45:05;;;;;;;12.18;3.00;;;;;;;;;;6273433;22;20025;-90
2022/06/19 02:48:00;;;;;;;9.57;1.90;;;;;;;;;;6311014;22;20489;-85
2022/06/19 02:50:31;;;;;;;18.33;2.47;;;;;;;;;;6283784;22;20023;-85
2022/06/19 02:53:00;;;;;;;8.98;2.28;;;;;;;;;;6284715;22;20057;-90
2022/06/19 02:55:33;;;;;;;15.48;1.90;;;;;;;;;;6260534;22;20061;-91
2022/06/19 02:58:01;;;;;;;15.93;2.38;;;;;;;;;;6311814;22;20019;-91
2022/06/19 03:00:30;;;;;;;14.35;2.72;;;;;;;;;;6284107;22;20505;-91
2022/06/19 03:03:02;;;;;;;16.63;2.90;;;;;;;;;;6310628;22;20022;-91
2022/06/19 03:05:31;;;;;;;12.52;2.20;;;;;;;;;;6284778;22;20023;-93
2022/06/19 03:08:25;;;;;;;18.25;2.78;;;;;;;;;;6312774;22;20023;-93
2022/06/19 03:10:53;;;;;;;11.70;2.50;;;;;;;;;;6275171;22;20045;-94
2022/06/19 03:13:28;;;;;;;13.68;2.13;;;;;;;;;;6250836;22;20544;-94
2022/06/19 03:16:03;;;;;;;16.65;2.42;;;;;;;;;;6274011;22;20027;-93
2022/06/19 03:18:31;;;;;;;12.85;2.30;;;;;;;;;;6284512;22;20030;-93
2022/06/19 03:20:59;;;;;;;16.85;2.30;;;;;;;;;;6312441;22;20026;-94
2022/06/19 03:23:53;;;;;;;14.30;3.30;;;;;;;;;;6290777;22;20033;-93
2022/06/19 03:26:21;;;;;;;12.75;2.15;;;;;;;;;;6311332;22;20559;-92
2022/06/19 03:28:49;;;;;;;15.18;2.10;;;;;;;;;;6273489;22;20030;-93
2022/06/19 03:31:41;;;;;;;10.35;1.88;;;;;;;;;;6310857;22;20460;-85
2022/06/19 03:34:09;;;;;;;16.63;2.75;;;;;;;;;;6308968;22;20019;-85
2022/06/19 03:36:37;;;;;;;17.58;2.50;;;;;;;;;;6310212;22;20047;-91
2022/06/19 03:39:05;;;;;;;12.77;2.58;;;;;;;;;;6273591;22;20035;-91
2022/06/19 03:41:33;;;;;;;12.52;2.47;;;;;;;;;;6282750;22;20355;-92
2022/06/19 03:44:01;;;;;;;22.65;3.10;;;;;;;;;;6272728;22;20019;-92
2022/06/19 03:46:29;;;;;;;15.25;2.78;;;;;;;;;;6283919;22;20029;-93
2022/06/19 03:49:02;;;;;;;11.27;2.30;;;;;;;;;;6310631;22;20504;-93
2022/06/19 03:51:35;;;;;;;12.45;1.92;;;;;;;;;;6311541;22;20027;-92
2022/06/19 03:54:08;;;;;;;16.70;2.38;;;;;;;;;;6249019;22;20194;-93
2022/06/19 03:56:35;;;;;;;12.75;2.90;;;;;;;;;;6312147;22;20098;-93
2022/06/19 03:59:11;;;;;;;15.93;2.42;;;;;;;;;;6283314;22;20027;-93
2022/06/19 04:01:43;;;;;;;17.63;2.60;;;;;;;;;;6284103;22;20021;-93
2022/06/19 04:04:41;;;;;;;20.33;2.67;;;;;;;;;;6272669;22;20092;-91
2022/06/19 04:07:11;;;;;;;19.70;2.53;;;;;;;;;;6273008;22;20022;-92
2022/06/19 04:09:40;;;;;;;18.73;2.60;;;;;;;;;;6310755;22;20015;-91
2022/06/19 04:12:33;;;;;;;14.10;3.35;;;;;;;;;;6310751;22;20092;-91
2022/06/19 04:15:01;;;;;;;17.85;2.95;;;;;;;;;;6258206;22;20381;-90
2022/06/19 04:17:29;;;;;;;14.57;2.45;;;;;;;;;;6284700;22;20023;-90
2022/06/19 04:19:57;;;;;;;12.95;2.35;;;;;;;;;;6312570;22;20064;-90
2022/06/19 04:22:29;;;;;;;10.07;2.15;;;;;;;;;;6285931;22;20461;-90
2022/06/19 04:25:02;;;;;;;7.30;2.00;;;;;;;;;;6251078;22;20102;-90
2022/06/19 04:27:31;;;;;;;15.68;3.20;;;;;;;;;;6285857;22;20022;-90
2022/06/19 04:30:06;;;;;;;13.55;2.88;;;;;;;;;;6313170;22;20477;-90
2022/06/19 04:32:33;;;;;;;12.38;2.28;;;;;;;;;;6312189;22;20030;-85
2022/06/19 04:35:01;;;;;;;9.88;2.58;;;;;;;;;;6311778;22;20019;-85
2022/06/19 04:40:28;;;;;;;15.93;2.47;;;;;;;;;;6312317;22;20050;-86
2022/06/19 04:43:21;;;;;;;16.25;2.70;;;;;;;;;;6284862;22;20011;-85
2022/06/19 04:45:49;;;;;;;17.10;2.63;;;;;;;;;;6311375;22;20023;-85
2022/06/19 04:48:17;;;;;;;14.43;2.38;;;;;;;;;;6311244;22;20022;-86
2022/06/19 04:50:53;;;;;;;12.73;2.08;;;;;;;;;;6286193;22;20102;-85
2022/06/19 04:53:25;;;;;;;16.75;2.53;;;;;;;;;;6285046;22;20019;-92
2022/06/19 04:55:57;;;;;;;15.10;2.75;;;;;;;;;;6225125;22;20023;-92
2022/06/19 04:58:25;;;;;;;11.80;3.13;;;;;;;;;;6285909;22;20045;-92
2022/06/19 05:00:54;;;;;;;17.60;2.40;;;;;;;;;;6312005;22;20039;-92
2022/06/19 05:03:23;;;;;;;19.52;3.10;;;;;;;;;;6274279;22;20019;-91
2022/06/19 05:06:15;;;;;;;23.08;4.00;;;;;;;;;;6290749;22;20481;-91
2022/06/19 05:08:53;;;;;;;15.30;2.60;;;;;;;;;;6310933;22;20019;-91
2022/06/19 05:11:23;;;;;;;15.18;2.70;;;;;;;;;;6299504;22;20023;-85
2022/06/19 05:13:51;;;;;;;14.68;2.90;;;;;;;;;;6310156;22;20471;-86
2022/06/19 05:16:21;;;;;;;11.40;2.22;;;;;;;;;;6309953;22;20027;-85
2022/06/19 05:18:53;;;;;;;15.65;2.50;;;;;;;;;;6311476;22;20343;-85
2022/06/19 05:21:23;;;;;;;16.45;3.50;;;;;;;;;;6283824;22;20024;-84
2022/06/19 05:23:53;;;;;;;12.63;2.22;;;;;;;;;;6312296;22;20022;-85
2022/06/19 05:26:28;;;;;;;11.90;2.38;;;;;;;;;;6311329;22;20388;-86
2022/06/19 05:29:03;;;;;;;10.32;2.20;;;;;;;;;;6311848;22;20045;-87
2022/06/19 05:31:35;;;;;;;15.55;3.05;;;;;;;;;;6310852;22;20027;-85
2022/06/19 05:34:03;;;;;;;13.20;2.72;;;;;;;;;;6310875;22;20060;-85
2022/06/19 05:37:05;;;;;;;14.55;2.80;;;;;;;;;;6310621;22;20362;-84
2022/06/19 05:39:33;;;;;;;11.00;2.55;;;;;;;;;;6311077;22;20403;-84
2022/06/19 05:42:03;;;;;;;14.95;2.58;;;;;;;;;;6283276;22;20026;-84
2022/06/19 05:44:31;;;;;;;13.30;2.47;;;;;;;;;;6311634;22;20019;-84
2022/06/19 05:47:03;;;;;;;12.60;2.45;;;;;;;;;;6310647;22;20015;-84
2022/06/19 05:49:33;;;;;;;11.02;2.20;;;;;;;;;;6283862;22;20355;-84
2022/06/19 05:52:03;;;;;;;11.82;2.60;;;;;;;;;;6284072;22;20026;-85
2022/06/19 05:54:31;;;;;;;12.02;2.50;;;;;;;;;;6311418;22;20098;-85
2022/06/19 05:56:59;;;;;;;9.20;2.05;;;;;;;;;;6310609;22;20447;-84
2022/06/19 05:59:51;;;;;;;15.13;2.58;;;;;;;;;;6310628;22;20007;-84
2022/06/19 06:02:22;;;;;;;12.75;2.60;;;;;;;;;;6309997;22;20019;-83
2022/06/19 06:05:14;;;;;;;7.72;2.17;;;;;;;;;;6311561;22;20019;-83
2022/06/19 06:07:43;;;;;;;13.27;2.67;;;;;;;;;;6310848;22;20057;-84
2022/06/19 06:10:38;;;;;;;14.32;2.67;;;;;;;;;;6311245;22;20023;-84
2022/06/19 06:13:05;;;;;;;10.27;2.40;;;;;;;;;;6284082;22;20023;-84
2022/06/19 06:15:34;;;;;;;17.83;2.80;;;;;;;;;;6310035;22;20053;-85
2022/06/19 06:18:02;;;;;;;8.60;2.30;;;;;;;;;;6273173;22;20514;-84
2022/06/19 06:20:31;;;;;;;12.63;2.70;;;;;;;;;;6311068;22;20019;-82
2022/06/19 06:23:25;;;;;;;10.35;2.47;;;;;;;;;;6310555;22;20096;-83
2022/06/19 06:26:08;;;;;;;15.20;2.70;;;;;;;;;;6309717;22;20025;-85
2022/06/19 06:28:39;;;;;;;13.77;2.95;;;;;;;;;;6271948;22;20015;-84
2022/06/19 06:31:08;;;;;;;11.80;2.85;;;;;;;;;;6309419;22;20126;-85
2022/06/19 06:33:42;;;;;;;14.80;2.70;;;;;;;;;;6310726;22;20015;-83
2022/06/19 06:36:10;;;;;;;16.08;3.25;;;;;;;;;;6310736;22;20015;-84
2022/06/19 06:38:42;;;;;;;14.05;2.95;;;;;;;;;;6284325;22;20741;-85
2022/06/19 06:41:12;;;;;;;20.42;3.55;;;;;;;;;;6308979;22;20015;-84
2022/06/19 06:43:41;;;;;;;11.93;2.75;;;;;;;;;;6311852;22;20081;-85
2022/06/19 06:46:14;;;;;;;13.05;2.72;;;;;;;;;;6310202;22;20807;-83
2022/06/19 06:48:49;;;;;;;7.03;2.15;;;;;;;;;;6310617;22;20431;-86
2022/06/19 06:51:21;;;;;;;11.07;2.45;;;;;;;;;;6309670;22;20058;-85
2022/06/19 06:53:56;;;;;;;13.35;2.10;;;;;;;;;;6273482;22;20015;-85
2022/06/19 06:56:31;;;;;;;8.80;2.78;;;;;;;;;;6310746;22;20050;-85
2022/06/19 06:59:00;;;;;;;9.65;2.50;;;;;;;;;;6310761;22;20142;-85
2022/06/19 07:01:32;;;;;;;9.65;2.58;;;;;;;;;;6309946;22;20126;-83
2022/06/19 07:03:59;;;;;;;11.80;2.15;;;;;;;;;;6310135;22;20742;-82
2022/06/19 07:06:29;;;;;;;7.72;2.17;;;;;;;;;;6278222;22;20023;-83
2022/06/19 07:08:58;;;;;;;5.30;1.67;;;;;;;;;;6311355;22;20041;-82
2022/06/19 07:11:35;;;;;;;8.70;1.88;;;;;;;;;;6310663;22;20023;-83
2022/06/19 07:14:08;;;;;;;10.18;2.13;;;;;;;;;;6310806;22;20019;-82
2022/06/19 07:16:36;;;;;;;7.18;2.35;;;;;;;;;;6309426;22;20019;-82
2022/06/19 07:19:03;;;;;;;11.13;2.08;;;;;;;;;;6283067;22;20535;-83
2022/06/19 07:21:35;;;;;;;5.60;1.55;;;;;;;;;;6310082;22;20029;-83
2022/06/19 07:24:03;;;;;;;7.00;1.90;;;;;;;;;;6310790;22;20035;-83
2022/06/19 07:26:37;;;;;;;7.72;1.50;;;;;;;;;;6283683;22;20023;-82
2022/06/19 07:29:09;;;;;;;7.05;1.88;;;;;;;;;;6310725;22;20021;-82
2022/06/19 07:31:37;;;;;;;6.00;1.80;;;;;;;;;;6282258;22;20404;-83
2022/06/19 07:34:09;;;;;;;6.07;2.10;;;;;;;;;;6309904;22;20039;-82
2022/06/19 07:36:43;;;;;;;6.47;2.00;;;;;;;;;;6310223;22;20029;-82
2022/06/19 07:39:11;;;;;;;7.30;1.77;;;;;;;;;;6309849;22;20038;-82
2022/06/19 07:41:39;;;;;;;7.57;1.42;;;;;;;;;;6310109;22;20015;-82
2022/06/19 07:44:14;;;;;;;6.57;1.50;;;;;;;;;;6310640;22;20030;-82
2022/06/19 07:52:39;;;;;;;8.50;1.50;;;;;;;;;;6309835;22;20025;-85
2022/06/19 07:55:15;;;;;;;9.02;1.83;;;;;;;;;;6309961;22;20022;-83
2022/06/19 07:57:43;;;;;;;7.13;1.38;;;;;;;;;;6310314;22;20019;-85
2022/06/19 08:00:17;;;;;;;4.25;1.23;;;;;;;;;;6273256;22;20027;-85
2022/06/19 08:02:48;;;;;;;7.70;1.42;;;;;;;;;;6282227;22;20354;-84
2022/06/19 08:05:24;;;;;;;6.97;1.60;;;;;;;;;;6287732;22;20021;-82
2022/06/19 08:07:59;;;;;;;7.90;1.85;;;;;;;;;;6315949;22;20443;-82
2022/06/19 08:10:37;;;;;;;3.60;0.98;;;;;;;;;;6287777;22;20077;-82
2022/06/19 08:13:06;;;;;;;6.13;1.40;;;;;;;;;;6275031;22;20026;-82
2022/06/19 08:15:34;;;;;;;5.00;1.50;;;;;;;;;;6284323;22;20351;-82
2022/06/19 08:18:02;;;;;;;5.32;1.42;;;;;;;;;;6312432;22;20019;-82
2022/06/19 08:20:29;;;;;;;5.57;1.30;;;;;;;;;;6313839;22;20026;-82
2022/06/19 08:23:23;;;;;;;7.05;1.40;;;;;;;;;;6315188;22;20455;-82
2022/06/19 08:25:51;;;;;;;5.35;1.40;;;;;;;;;;6315160;22;20019;-81
2022/06/19 08:31:07;;;;;;;5.32;1.20;;;;;;;;;;6323548;22;20702;-82
2022/06/19 08:33:35;;;;;;;4.57;1.52;;;;;;;;;;6287820;22;20023;-82
2022/06/19 08:36:07;;;;;;;7.82;1.67;;;;;;;;;;6317883;22;20043;-83
2022/06/19 08:39:01;;;;;;;;;;;;;;;;;;6293016;22;20083;-82
2022/06/19 08:42:00;;;;;;;4.00;1.05;;;;;;;;;;6316809;22;19919;-81
2022/06/19 08:44:37;;;;;;;6.53;1.50;;;;;;;;;;6318770;22;20023;-82
2022/06/19 08:47:35;;;;;;;5.55;1.52;;;;;;;;;;6289494;22;20050;-82
2022/06/19 08:50:24;;;;;;;5.85;1.73;;;;;;;;;;6320805;22;20026;-82
2022/06/19 08:53:22;;;;;;;7.43;1.40;;;;;;;;;;6294887;22;20007;-82
2022/06/19 08:56:22;;;;;;;4.38;1.33;;;;;;;;;;6321535;22;20061;-82
2022/06/19 09:02:12;;;;;;;6.07;1.38;;;;;;;;;;6322164;22;20019;-82
2022/06/19 09:07:42;;;;;;;4.35;1.20;;;;;;;;;;6321605;22;20114;-83
2022/06/19 09:10:51;;;;;;;5.32;1.30;;;;;;;;;;6319272;22;20007;-82
2022/06/19 09:13:44;;;;;;;6.82;1.33;;;;;;;;;;6319045;22;20090;-82
2022/06/19 09:16:24;;;;;;;5.90;1.40;;;;;;;;;;6296072;22;20046;-81
2022/06/19 09:19:10;;;;;;;4.22;1.33;;;;;;;;;;6318332;22;20019;-82
2022/06/19 09:21:46;;;;;;;4.57;1.25;;;;;;;;;;6314522;22;20094;-82
2022/06/19 09:24:32;;;;;;;4.90;1.27;;;;;;;;;;6294741;22;20038;-83
2022/06/19 09:27:01;;;;;;;4.88;1.20;;;;;;;;;;6225724;22;20027;-82
2022/06/19 09:29:52;;;;;;;9.50;1.45;;;;;;;;;;6253879;22;20042;-83
2022/06/19 09:36:28;;;;;;;7.40;1.70;;;;;;;;;;6313456;22;20094;-83
2022/06/19 09:39:18;;;;;;;6.28;1.17;;;;;;;;;;6224590;22;20027;-83
2022/06/19 09:41:58;;;;;;;5.82;1.50;;;;;;;;;;6275497;22;20030;-83
2022/06/19 09:45:10;;;;;;;4.60;1.30;;;;;;;;;;6284951;22;20015;-83
2022/06/19 09:47:44;;;;;;;5.75;1.60;;;;;;;;;;6161670;23;20810;-84
2022/06/19 09:50:51;;;;;;;6.95;1.30;;;;;;;;;;6142345;23;20044;-83
2022/06/19 09:53:40;;;;;;;6.35;1.50;;;;;;;;;;6178832;23;20025;-84
2022/06/19 09:56:39;;;;;;;6.93;1.40;;;;;;;;;;6184310;23;20024;-84
2022/06/19 09:59:10;;;;;;;5.07;1.55;;;;;;;;;;6184148;23;20465;-83
2022/06/19 10:01:38;;;;;;;5.60;1.50;;;;;;;;;;6134819;23;20590;-84
2022/06/19 10:04:24;;;;;;;3.88;1.48;;;;;;;;;;6160627;23;20025;-84
2022/06/19 10:10:24;;;;;;;5.53;2.00;;;;;;;;;;6176077;23;20481;-83
2022/06/19 10:12:59;;;;;;;6.13;1.60;;;;;;;;;;6191276;23;20021;-83
2022/06/19 10:15:35;;;;;;;6.00;1.65;;;;;;;;;;6138434;23;20056;-82
2022/06/19 10:18:18;;;;;;;7.40;1.70;;;;;;;;;;6196875;23;20017;-81
2022/06/19 10:20:57;;;;;;;5.15;1.45;;;;;;;;;;6173422;23;20080;-81
2022/06/19 10:24:32;;;;;;;10.57;2.20;;;;;;;;;;6299923;22;20038;-82
2022/06/19 10:27:28;;;;;;;6.22;1.50;;;;;;;;;;6326269;22;20015;-82
2022/06/19 10:30:01;;;;;;;;;;;;;;;;;;6324589;22;20019;-82
2022/06/19 10:33:05;;;;;;;6.78;1.90;;;;;;;;;;6288155;22;19917;-81
2022/06/19 10:35:50;;;;;;;9.10;1.63;;;;;;;;;;6324195;22;20026;-83
2022/06/19 10:38:38;;;;;;;8.73;2.17;;;;;;;;;;6281802;22;20023;-83
2022/06/19 10:44:23;;;;;;;8.27;1.50;;;;;;;;;;6308277;22;20091;-83
2022/06/19 10:47:38;;;;;;;6.50;1.88;;;;;;;;;;6265828;22;20355;-84
2022/06/19 10:50:42;;;;;;;10.30;2.00;;;;;;;;;;6308122;22;20019;-84
2022/06/19 10:53:36;;;;;;;8.13;1.70;;;;;;;;;;6308180;22;20528;-83
2022/06/19 10:56:13;;;;;;;9.07;2.03;;;;;;;;;;6308114;22;20015;-84
2022/06/19 10:58:45;;;;;;;8.75;1.85;;;;;;;;;;6286172;22;20018;-83
2022/06/19 11:04:18;;;;;;;8.05;1.83;;;;;;;;;;6309483;22;20106;-84
2022/06/19 11:06:53;;;;;;;9.70;1.92;;;;;;;;;;6307929;22;20046;-83
2022/06/19 11:09:32;;;;;;;12.15;2.33;;;;;;;;;;6311758;22;20404;-83
2022/06/19 11:12:34;;;;;;;7.88;1.90;;;;;;;;;;6284179;22;20393;-83
2022/06/19 11:15:16;;;;;;;9.32;2.13;;;;;;;;;;6185617;23;20769;-84
2022/06/19 11:17:43;;;;;;;11.10;2.20;;;;;;;;;;6149930;23;20052;-84
2022/06/19 11:20:24;;;;;;;14.35;2.38;;;;;;;;;;6186626;23;20032;-84
2022/06/19 11:22:59;;;;;;;6.70;1.70;;;;;;;;;;6124460;23;20048;-84
2022/06/19 11:25:35;;;;;;;6.82;2.03;;;;;;;;;;6184092;23;20025;-83
2022/06/19 11:28:11;;;;;;;10.40;2.17;;;;;;;;;;6181068;23;20455;-83
2022/06/19 11:31:07;;;;;;;8.75;2.20;;;;;;;;;;6161649;23;20024;-81
2022/06/19 11:33:36;;;;;;;;;;;;;;;;;;6182831;23;20028;-81
2022/06/19 11:36:08;;;;;;;6.82;1.98;;;;;;;;;;6155863;23;19920;-81
2022/06/19 11:39:33;;;;;;;10.82;2.55;;;;;;;;;;6181307;23;20084;-81
2022/06/19 11:42:19;;;;;;;10.50;1.80;;;;;;;;;;6145386;23;20028;-82
2022/06/19 11:45:14;;;;;;;11.05;2.00;;;;;;;;;;6159757;23;20722;-82
2022/06/19 11:47:59;;;;;;;10.95;2.42;;;;;;;;;;6178964;23;20171;-82
2022/06/19 11:50:33;;;;;;;12.00;2.20;;;;;;;;;;6180247;23;20021;-82
2022/06/19 11:53:11;;;;;;;14.25;2.83;;;;;;;;;;6299164;22;20034;-82
2022/06/19 11:55:44;;;;;;;24.35;2.88;;;;;;;;;;6305382;22;20126;-81
2022/06/19 11:58:38;;;;;;;;;;;;;;;;;;6306023;22;20011;-82
2022/06/19 12:01:14;;;;;;;8.20;2.58;;;;;;;;;;6245086;22;19919;-84
2022/06/19 12:04:25;;;;;;;10.77;2.67;;;;;;;;;;6270709;22;20084;-85
2022/06/19 12:06:58;;;;;;;7.07;2.50;;;;;;;;;;6274433;22;20011;-85
2022/06/19 12:09:55;;;;;;;;;;;;;;;;;;6289641;22;20015;-86
2022/06/19 12:12:24;;;;;;;8.32;2.72;;;;;;;;;;6309665;22;19918;-85
2022/06/19 12:15:19;;;;;;;11.63;2.42;;;;;;;;;;6309624;22;20068;-84
2022/06/19 12:17:59;;;;;;;10.55;2.78;;;;;;;;;;6280449;22;20019;-84
2022/06/19 12:20:31;;;;;;;11.45;2.60;;;;;;;;;;6310406;22;20015;-84
2022/06/19 12:23:07;;;;;;;8.00;1.92;;;;;;;;;;6282647;22;20038;-84
2022/06/19 12:25:43;;;;;;;16.73;2.80;;;;;;;;;;6308442;22;20015;-84
2022/06/19 12:28:17;;;;;;;9.50;2.33;;;;;;;;;;6308772;22;20447;-83
2022/06/19 12:31:15;;;;;;;12.52;2.90;;;;;;;;;;6285160;22;20476;-83
2022/06/19 12:34:01;;;;;;;11.75;3.05;;;;;;;;;;6313797;22;20015;-82
2022/06/19 12:36:35;;;;;;;11.40;2.65;;;;;;;;;;6292188;22;20011;-82
2022/06/19 12:39:31;;;;;;;12.88;2.67;;;;;;;;;;6288907;22;20041;-82
2022/06/19 12:42:05;;;;;;;;;;;;;;;;;;6314466;22;20019;-83
2022/06/19 12:44:49;;;;;;;11.20;2.13;;;;;;;;;;6322293;22;19919;-81
2022/06/19 12:47:49;;;;;;;11.60;2.80;;;;;;;;;;6315427;22;20019;-82
2022/06/19 12:50:45;;;;;;;11.20;2.47;;;;;;;;;;6314042;22;20042;-81
2022/06/19 12:53:20;;;;;;;;;;;;;;;;;;6310490;22;20019;-81
2022/06/19 12:56:07;;;;;;;11.55;2.15;;;;;;;;;;6314345;22;19954;-80
2022/06/19 12:59:21;;;;;;;9.55;2.25;;;;;;;;;;6291553;22;20033;-82
2022/06/19 13:02:51;;;;;;;12.77;2.42;;;;;;;;;;6270678;22;20011;-81
2022/06/19 13:05:39;;;;;;;9.85;2.38;;;;;;;;;;6258729;22;20023;-83
2022/06/19 13:08:43;;;;;;;12.55;2.60;;;;;;;;;;6311230;22;20018;-83
2022/06/19 13:11:44;;;;;;;12.38;2.67;;;;;;;;;;6309996;22;20019;-83
2022/06/19 13:14:23;;;;;;;7.35;2.42;;;;;;;;;;6311826;22;20114;-82
2022/06/19 13:17:00;;;;;;;13.45;2.80;;;;;;;;;;6311056;22;20025;-82
2022/06/19 13:19:29;;;;;;;11.10;2.95;;;;;;;;;;6283050;22;20047;-82
2022/06/19 13:22:36;;;;;;;10.05;3.22;;;;;;;;;;6311343;22;20121;-83
2022/06/19 13:25:29;;;;;;;7.78;2.30;;;;;;;;;;6150797;23;20424;-83
2022/06/19 13:28:25;;;;;;;9.15;2.72;;;;;;;;;;6184797;23;20029;-84
2022/06/19 13:30:53;;;;;;;;;;;;;;;;;;6184680;23;20665;-84
2022/06/19 13:33:38;;;;;;;10.68;2.55;;;;;;;;;;6149093;23;19982;-84
2022/06/19 13:36:46;;;;;;;11.13;3.05;;;;;;;;;;6184508;23;20093;-84
2022/06/19 13:39:21;;;;;;;8.45;2.28;;;;;;;;;;6185511;23;20061;-84
2022/06/19 13:42:24;;;;;;;7.10;2.60;;;;;;;;;;6185389;23;20035;-85
2022/06/19 13:45:37;;;;;;;12.43;3.05;;;;;;;;;;6169465;23;20047;-85
2022/06/19 13:48:36;;;;;;;12.40;2.67;;;;;;;;;;6184247;23;20020;-84
2022/06/19 13:51:20;;;;;;;9.32;2.60;;;;;;;;;;6184960;23;20036;-85
2022/06/19 13:53:59;;;;;;;9.85;3.83;;;;;;;;;;6185464;23;20824;-85
2022/06/19 13:56:44;;;;;;;9.32;2.95;;;;;;;;;;6184085;23;20044;-85
2022/06/19 13:59:22;;;;;;;11.05;3.28;;;;;;;;;;6184362;23;20035;-85
2022/06/19 14:02:08;;;;;;;13.15;3.65;;;;;;;;;;6238412;22;20459;-85
2022/06/19 14:04:46;;;;;;;7.18;2.70;;;;;;;;;;6311163;22;20023;-85
2022/06/19 14:07:44;;;;;;;12.50;2.78;;;;;;;;;;6309258;22;20024;-82
2022/06/19 14:10:26;;;;;;;9.60;2.58;;;;;;;;;;6309994;22;20120;-82
2022/06/19 14:13:03;;;;;;;16.08;3.13;;;;;;;;;;6310227;22;20051;-82
2022/06/19 14:15:53;;;;;;;12.07;3.08;;;;;;;;;;6258182;22;20404;-82
2022/06/19 14:18:50;;;;;;;11.43;2.70;;;;;;;;;;6324996;22;20017;-83
2022/06/19 14:21:52;;;;;;;9.77;2.80;;;;;;;;;;6323587;22;20015;-83
2022/06/19 14:24:44;;;;;;;12.05;2.70;;;;;;;;;;6324123;22;20027;-81
2022/06/19 14:27:15;;;;;;;9.20;2.85;;;;;;;;;;6315075;22;20345;-81
2022/06/19 14:30:11;;;;;;;9.18;2.72;;;;;;;;;;6313849;22;20023;-82
2022/06/19 14:32:43;;;;;;;8.02;2.03;;;;;;;;;;6316265;22;20015;-82
2022/06/19 14:35:15;;;;;;;6.10;2.13;;;;;;;;;;6319670;22;20031;-82
2022/06/19 14:37:48;;;;;;;10.70;2.83;;;;;;;;;;6308669;22;20455;-82
2022/06/19 14:40:18;;;;;;;10.05;2.47;;;;;;;;;;6320183;22;20019;-82
2022/06/19 14:43:09;;;;;;;6.82;2.33;;;;;;;;;;6313803;22;20382;-81
2022/06/19 14:46:04;;;;;;;8.53;2.20;;;;;;;;;;6316066;22;20014;-82
2022/06/19 14:48:54;;;;;;;8.80;2.50;;;;;;;;;;6322080;22;20873;-81
2022/06/19 14:51:53;;;;;;;10.25;2.20;;;;;;;;;;6318076;22;20023;-80
2022/06/19 14:55:00;;;;;;;11.10;2.28;;;;;;;;;;6320368;22;20030;-81
2022/06/19 14:57:40;;;;;;;8.77;2.00;;;;;;;;;;6319845;22;20019;-81
2022/06/19 15:00:12;;;;;;;9.02;2.25;;;;;;;;;;6264441;22;20023;-81
2022/06/19 15:03:01;;;;;;;10.15;2.25;;;;;;;;;;6313497;22;20053;-81
2022/06/19 15:05:38;;;;;;;6.72;2.65;;;;;;;;;;6318678;22;20019;-81
2022/06/19 15:08:28;;;;;;;6.57;2.50;;;;;;;;;;6280355;22;20020;-80
2022/06/19 15:11:08;;;;;;;7.53;2.42;;;;;;;;;;6318635;22;20090;-81
2022/06/19 15:13:46;;;;;;;6.03;2.22;;;;;;;;;;6316342;22;20019;-80
2022/06/19 15:16:34;;;;;;;6.78;2.67;;;;;;;;;;6288734;22;20038;-81
2022/06/19 15:19:13;;;;;;;8.52;1.98;;;;;;;;;;6313788;22;20126;-81
2022/06/19 15:21:48;;;;;;;9.45;2.53;;;;;;;;;;6315596;22;20084;-82
2022/06/19 15:24:28;;;;;;;5.18;2.20;;;;;;;;;;6318509;22;20019;-81
2022/06/19 15:27:24;;;;;;;5.93;2.17;;;;;;;;;;6278513;22;20015;-81
2022/06/19 15:29:57;;;;;;;8.32;2.10;;;;;;;;;;6243591;22;20049;-81
2022/06/19 15:33:19;;;;;;;6.68;2.10;;;;;;;;;;6309125;22;20019;-82
2022/06/19 15:36:00;;;;;;;8.77;2.08;;;;;;;;;;6187586;23;20806;-81
2022/06/19 15:38:50;;;;;;;7.53;2.20;;;;;;;;;;6159758;23;20033;-81
2022/06/19 15:41:59;;;;;;;6.72;2.33;;;;;;;;;;6158800;23;20041;-81
2022/06/19 15:44:29;;;;;;;9.40;2.22;;;;;;;;;;6072557;23;20487;-81
2022/06/19 15:47:14;;;;;;;7.07;2.20;;;;;;;;;;6076688;23;20034;-81
2022/06/19 15:49:44;;;;;;;8.25;2.17;;;;;;;;;;6040771;23;20113;-82
2022/06/19 15:52:17;;;;;;;8.52;2.50;;;;;;;;;;6071865;23;20026;-81
2022/06/19 15:54:47;;;;;;;5.90;1.90;;;;;;;;;;6069807;23;20207;-83
2022/06/19 15:57:21;;;;;;;5.13;2.10;;;;;;;;;;6066527;23;20626;-83
2022/06/19 16:00:26;;;;;;;7.40;2.17;;;;;;;;;;6035594;23;20022;-83
2022/06/19 16:03:21;;;;;;;5.53;1.95;;;;;;;;;;6043385;23;20093;-82
2022/06/19 16:06:00;;;;;;;5.85;2.00;;;;;;;;;;6050281;23;20074;-82
2022/06/19 16:08:28;;;;;;;5.70;1.80;;;;;;;;;;6066685;23;20062;-82
2022/06/19 16:11:06;;;;;;;6.05;2.03;;;;;;;;;;6184176;23;20025;-81
2022/06/19 16:13:36;;;;;;;7.70;1.98;;;;;;;;;;6186584;23;20048;-81
2022/06/19 16:16:19;;;;;;;9.93;1.90;;;;;;;;;;6188348;23;20528;-81
2022/06/19 16:19:24;;;;;;;4.70;1.70;;;;;;;;;;6163138;22;20461;-81
2022/06/19 16:22:20;;;;;;;4.50;1.73;;;;;;;;;;6158358;23;20099;-81
2022/06/19 16:24:58;;;;;;;5.28;1.90;;;;;;;;;;6159496;23;20104;-81
2022/06/19 16:27:28;;;;;;;5.85;2.15;;;;;;;;;;6159396;23;20068;-80